Barbados Meteorological Services
Auto gathered TAF list
Powered by Apparatus software
For Flight WS2513
Contact Number 1-(246)-535-0021/2/3/4/5/6
WEB: http://www.barbadosweather.org

**********************************************

2017/07/27 21:59
TAF
AMD TXKF 272120Z 2721/2818 27008KT 9999 VCSH FEW020 SCT075 BKN300 PROB40
TEMPO 2721/2809 27012KT 4800 SHRA BKN020


**********************************************
2017/07/27 18:15
TAF TLPL 271700Z 2718/2818 10015KT 9999 SCT024
TEMPO 2718/2802 SHRA FEW015CB SCT019TCU


**********************************************
2017/07/27 18:30
TAF TJSJ 271825Z 2718/2818 06010KT P6SM VCSH SCT025 SCT050
TEMPO 2718/2719 VRB12G18KT 5SM SHRA SCT025 BKN050 BKN070
FM272300 10005KT P6SM FEW030 SCT070
FM281400 07013KT P6SM FEW025 SCT060


**********************************************
2017/07/27 18:06
TAF TFFR 271700Z 2718/2818 12010KT 9999 SCT025
TEMPO 2718/2806 3000 SHRA SCT018TCU BKN025 PROB30
TEMPO 2718/2806 FEW015CB PROB30
TEMPO 2806/2812 3000 SHRA SCT018TCU


**********************************************
2017/07/27 18:29
TAF TBPB 271700Z 2718/2818 11012KT 9999 SCT018 PROB30
TEMPO 2718/2722 SHRA BKN014 FEW016CB PROB30
TEMPO 2802/2808 SHRA BKN014


**********************************************
2017/07/27 18:27
TAF TAPA 271820Z 2718/2818 11007KT 9999 SCT021 PROB40
TEMPO 2718/2812 4000 SHRA FEW012CB BKN014


**********************************************
2017/07/27 21:20
TAF
AMD KPHL 272113Z 2721/2824 VRB03KT P6SM BKN025 OVC035
FM272300 VRB03KT P6SM VCSH SCT040 BKN100
FM280300 VRB04KT P6SM SCT150 BKN250
FM280600 VRB03KT P6SM BKN025 OVC050
FM280900 VRB03KT 3SM BR BKN008 OVC025
FM281500 08005KT 4SM -SHRA BR BKN008 OVC015
FM282000 12008KT 3SM SHRA BR OVC008 PROB30 2820/2824 2SM TS BKN008CB


**********************************************
2017/07/27 18:34
TAF KORF 271732Z 2718/2818 21010KT P6SM SCT040 BKN150
FM272200 19010KT P6SM BKN040
FM280000 19009KT P6SM VCTS BKN040CB
FM280300 22011KT P6SM BKN060
FM281000 23008KT P6SM OVC030
FM281300 23008KT P6SM OVC035
FM281600 23009KT P6SM -SHRA OVC040


**********************************************
2017/07/27 22:56
TAF COR KJFK 272148Z 2722/2824 18010KT P6SM VCSH SCT025 BKN035
TEMPO 2722/2802 BKN025
FM280500 VRB03KT P6SM SCT025 BKN200
TEMPO 2805/2808 BKN035
FM281200 03005KT P6SM SCT025 BKN200
FM281800 11008KT P6SM SCT040 BKN200


**********************************************
2017/07/27 21:09
TAF
AMD KIAD 272105Z 2721/2824 VRB04KT P6SM VCTS FEW040CB BKN080
FM280400 VRB03KT P6SM BKN130
FM281600 24004KT P6SM OVC050
FM281800 17005KT 5SM -SHRA OVC050
FM282100 11005KT 5SM SHRA OVC020


**********************************************
2017/07/27 22:40
TAF
AMD KEWR 272138Z 2722/2824 VRB05KT P6SM VCSH BKN025 BKN035
FM280300 VRB04KT P6SM SCT025 BKN035
TEMPO 2803/2806 BKN025
FM280700 VRB03KT P6SM SCT025 BKN200
FM281200 03005KT P6SM SCT025 BKN200
FM281800 10007KT P6SM SCT040 BKN200


**********************************************
2017/07/27 18:33
TAF KCHS 271731Z 2718/2818 19006KT P6SM SCT030 SCT100
FM280200 VRB05KT P6SM SCT020 BKN050


**********************************************
2017/07/27 20:08
TAF
AMD KBOS 272005Z 2720/2824 22013KT P6SM -RA FEW012 SCT035 BKN110
FM272200 23007KT P6SM VCSH SCT012 BKN035
FM280200 25006KT 3SM BR BKN012
FM281300 32005KT P6SM SCT015
FM281500 01005KT P6SM SKC


**********************************************
2017/07/27 21:39
TAF TAF CYYZ 272038Z 2721/2824 VRB03KT P6SM SCT030 BKN080
BECMG 2722/2724 34010KT
FM280100 35010KT P6SM SKC
FM281400 04010KT P6SM FEW040
RMK NXT FCST BY 280000Z


**********************************************
2017/07/27 21:42
TAF CYUL 272038Z 2721/2818 27012G22KT P6SM FEW020 BKN040
TEMPO 2721/2723 5SM -SHRA BR BKN020 PROB30 2721/2723 2SM +TSRA BR BKN030CB
FM272300 26008KT P6SM BKN050
FM280700 34006KT P6SM FEW040
BECMG 2814/2816 23008KT
RMK NXT FCST BY 280000Z


**********************************************
2017/07/27 21:42
TAF CYOW 272038Z 2721/2818 31010G20KT P6SM FEW020 BKN040 BKN080
TEMPO 2721/2723 5SM -SHRA BR BKN020 PROB30 2721/2723 2SM TSRA BR BKN020CB
FM272300 31010KT P6SM BKN050
TEMPO 2723/2804 SCT050
FM280400 34006KT P6SM FEW040
BECMG 2816/2818 34010KT
RMK NXT FCST BY 280000Z


**********************************************
2017/07/27 18:42
TAF CYMX 271738Z 2718/2818 26012KT P6SM BKN030
TEMPO 2718/2723 5SM -SHRA BR BKN020 PROB30 2720/2723 2SM +TSRA BR BKN030CB
FM272300 31006KT P6SM BKN050
TEMPO 2723/2805 SCT050
FM280600 VRB03KT P6SM FEW040
BECMG 2814/2816 22005KT
RMK NXT FCST BY 280000Z


**********************************************